Time;durP1;ratioP1;P1;durP2;ratioP2;P2;SDS_P1;SDS_P2;PMS_P1;PMS_P2;Temp;Humidity;BMP_temperature;BMP_pressure;BME280_temperature;BME280_humidity;BME280_pressure;Samples;Min_cycle;Max_cycle;Signal;HPM_P1;HPM_P2
2022/01/03 00:00:31;;;;;;;3.63;0.80;;;;;;;7.03;100.00;100626.06;4711507;30;20052;-76
2022/01/03 00:03:04;;;;;;;4.43;1.20;;;;;;;7.05;100.00;100631.31;4736556;30;20067;-76
2022/01/03 00:05:33;;;;;;;2.15;0.90;;;;;;;7.05;100.00;100639.19;4729588;30;20059;-76
2022/01/03 00:08:03;;;;;;;4.63;1.10;;;;;;;7.06;100.00;100633.97;4747779;30;20067;-76
2022/01/03 00:10:33;;;;;;;7.93;1.10;;;;;;;7.04;100.00;100640.94;4745629;30;20047;-76
2022/01/03 00:13:04;;;;;;;4.00;1.00;;;;;;;7.05;100.00;100641.81;4732361;30;20078;-76
2022/01/03 00:15:32;;;;;;;;;;;;;;;7.04;100.00;100654.03;4706452;30;20580;-76
2022/01/03 00:18:01;;;;;;;7.20;1.30;;;;;;;7.05;100.00;100652.28;4748979;30;19925;-76
2022/01/03 00:20:29;;;;;;;11.55;2.05;;;;;;;7.04;100.00;100646.19;4741902;30;20503;-76
2022/01/03 00:23:07;;;;;;;6.30;1.58;;;;;;;7.06;100.00;100648.81;4728673;30;20052;-77
2022/01/03 00:25:41;;;;;;;11.10;1.67;;;;;;;7.06;100.00;100647.06;4736816;30;20446;-76
2022/01/03 00:28:25;;;;;;;8.60;1.75;;;;;;;7.08;100.00;100636.63;4739327;30;20052;-77
2022/01/03 00:30:56;;;;;;;9.98;2.15;;;;;;;7.09;100.00;100643.59;4715338;30;20561;-77
2022/01/03 00:33:25;;;;;;;;;;;;;;;7.10;100.00;100646.25;4726002;30;20406;-76
2022/01/03 00:35:59;;;;;;;9.68;2.00;;;;;;;7.13;100.00;100650.69;4726158;30;19926;-77
2022/01/03 00:38:35;;;;;;;8.82;2.10;;;;;;;7.17;100.00;100653.34;4731333;30;20402;-78
2022/01/03 00:41:04;;;;;;;13.20;3.22;;;;;;;7.20;100.00;100658.66;4726960;30;20064;-78
2022/01/03 00:43:32;;;;;;;14.30;3.05;;;;;;;7.25;100.00;100656.06;4720068;30;20069;-76
2022/01/03 00:46:01;;;;;;;14.30;2.67;;;;;;;7.32;100.00;100657.06;4711765;30;20048;-77
2022/01/03 00:48:32;;;;;;;9.93;2.35;;;;;;;7.37;100.00;100645.78;4694713;30;20403;-76
2022/01/03 00:51:04;;;;;;;13.05;3.20;;;;;;;7.44;100.00;100645.84;4739367;30;20067;-78
2022/01/03 00:53:32;;;;;;;11.60;2.90;;;;;;;7.50;100.00;100656.41;4729528;30;20063;-78
2022/01/03 00:56:04;;;;;;;13.52;2.90;;;;;;;7.53;100.00;100651.19;4718058;30;20059;-76
2022/01/03 00:58:42;;;;;;;11.07;2.55;;;;;;;7.58;100.00;100649.50;4719319;30;20070;-77
2022/01/03 01:01:11;;;;;;;17.48;2.53;;;;;;;7.60;100.00;100653.03;4746646;30;20534;-77
2022/01/03 01:03:41;;;;;;;14.88;2.83;;;;;;;7.63;100.00;100645.19;4714275;30;20531;-77
2022/01/03 01:06:10;;;;;;;8.33;2.53;;;;;;;7.67;100.00;100649.59;4720403;30;20052;-77
2022/01/03 01:08:39;;;;;;;14.70;2.97;;;;;;;7.71;100.00;100661.03;4741817;30;20598;-77
2022/01/03 01:11:08;;;;;;;11.82;3.22;;;;;;;7.74;100.00;100671.56;4748204;30;20044;-77
2022/01/03 01:13:39;;;;;;;20.15;2.92;;;;;;;7.78;100.00;100675.97;4723369;30;20252;-76
2022/01/03 01:16:11;;;;;;;22.95;3.58;;;;;;;7.83;100.00;100686.53;4733591;30;20056;-77
2022/01/03 01:18:46;;;;;;;15.02;3.00;;;;;;;7.86;100.00;100671.69;4681243;30;20773;-77
2022/01/03 01:21:16;;;;;;;16.95;2.72;;;;;;;7.89;100.00;100673.47;4716209;30;20051;-77
2022/01/03 01:23:45;;;;;;;21.30;3.05;;;;;;;7.90;100.00;100680.47;4727878;30;20040;-77
2022/01/03 01:29:04;;;;;;;14.85;3.58;;;;;;;7.93;100.00;100688.41;4736122;30;20060;-77
2022/01/03 01:31:35;;;;;;;17.33;3.28;;;;;;;7.94;100.00;100679.63;4699167;30;20343;-76
2022/01/03 01:34:05;;;;;;;22.92;3.25;;;;;;;7.94;100.00;100684.88;4738357;30;20066;-76
2022/01/03 01:36:36;;;;;;;18.85;3.72;;;;;;;7.94;100.00;100679.63;4719477;30;20332;-76
2022/01/03 01:39:09;;;;;;;17.63;2.83;;;;;;;7.94;100.00;100677.00;4697693;30;20062;-77
2022/01/03 01:41:45;;;;;;;19.45;3.47;;;;;;;7.93;100.00;100680.53;4759176;30;20048;-78
2022/01/03 01:44:14;;;;;;;27.27;4.97;;;;;;;7.93;100.00;100684.00;4747310;30;20395;-78
2022/01/03 01:46:52;;;;;;;21.00;3.45;;;;;;;7.94;100.00;100677.00;4703989;30;20344;-78
2022/01/03 01:49:26;;;;;;;19.63;3.85;;;;;;;7.95;100.00;100681.41;4702704;30;20068;-76
2022/01/03 01:52:02;;;;;;;23.08;3.75;;;;;;;7.97;100.00;100682.31;4733449;30;20250;-78
2022/01/03 01:54:37;;;;;;;20.52;3.15;;;;;;;7.98;100.00;100687.59;4739396;30;20090;-78
2022/01/03 01:57:20;;;;;;;21.58;4.85;;;;;;;7.98;100.00;100690.22;4733579;30;20047;-77
2022/01/03 02:00:04;;;;;;;27.23;4.63;;;;;;;8.02;100.00;100692.88;4731939;30;20056;-77
2022/01/03 02:03:19;;;;;;;22.58;4.85;;;;;;;8.02;100.00;100701.63;4751249;24;20047;-81
2022/01/03 02:06:15;;;;;;;20.50;3.70;;;;;;;8.00;100.00;100698.97;4715082;30;20049;-81
2022/01/03 02:08:55;;;;;;;25.95;3.95;;;;;;;7.99;100.00;100698.94;4724837;30;20316;-80
2022/01/03 02:11:48;;;;;;;27.45;4.90;;;;;;;7.99;100.00;100701.56;4757269;30;20052;-82
2022/01/03 02:14:18;;;;;;;19.27;3.60;;;;;;;7.98;100.00;100700.69;4744655;30;20061;-82
2022/01/03 02:16:53;;;;;;;15.10;3.13;;;;;;;7.99;100.00;100701.56;4696957;30;20048;-80
2022/01/03 02:19:25;;;;;;;18.42;3.70;;;;;;;7.98;100.00;100705.06;4730757;30;20056;-80
2022/01/03 02:21:54;;;;;;;21.75;3.95;;;;;;;7.98;100.00;100707.69;4720047;30;20055;-80
2022/01/03 02:24:29;;;;;;;15.63;3.55;;;;;;;8.01;100.00;100710.34;4710879;30;20060;-82
2022/01/03 02:27:00;;;;;;;17.00;4.43;;;;;;;8.04;100.00;100709.53;4741788;30;20052;-80
2022/01/03 02:29:29;;;;;;;14.63;2.60;;;;;;;8.04;100.00;100702.50;4738430;30;20060;-81
2022/01/03 02:31:58;;;;;;;28.70;5.32;;;;;;;8.10;100.00;100712.19;4701361;30;20054;-80
2022/01/03 02:34:29;;;;;;;18.83;2.97;;;;;;;8.12;100.00;100715.72;4745450;30;20055;-80
2022/01/03 02:36:59;;;;;;;22.83;4.55;;;;;;;8.14;100.00;100703.50;4681865;30;20067;-80
2022/01/03 02:39:29;;;;;;;27.35;4.00;;;;;;;8.13;100.00;100702.63;4721902;30;20052;-80
2022/01/03 02:41:57;;;;;;;28.13;4.78;;;;;;;8.15;100.00;100697.41;4730725;30;20407;-80
2022/01/03 02:44:26;;;;;;;25.35;4.43;;;;;;;8.15;100.00;100700.88;4700328;30;20495;-80
2022/01/03 02:46:56;;;;;;;24.90;4.30;;;;;;;8.16;100.00;100704.38;4736191;30;20657;-80
2022/01/03 02:49:25;;;;;;;23.80;3.38;;;;;;;8.18;100.00;100706.19;4718288;30;20048;-81
2022/01/03 02:51:56;;;;;;;28.50;4.63;;;;;;;8.19;100.00;100707.94;4678005;30;20048;-80
2022/01/03 02:54:26;;;;;;;25.30;5.07;;;;;;;8.20;100.00;100695.69;4707531;30;20408;-81
2022/01/03 02:56:56;;;;;;;18.55;3.50;;;;;;;8.22;100.00;100701.81;4719113;30;20056;-80
2022/01/03 02:59:25;;;;;;;17.88;3.75;;;;;;;8.22;100.00;100693.94;4728175;30;20511;-82
2022/01/03 03:01:54;;;;;;;23.75;3.80;;;;;;;8.20;100.00;100688.69;4744677;30;20052;-80
2022/01/03 03:04:23;;;;;;;22.40;4.30;;;;;;;8.23;100.00;100694.84;4764139;30;20079;-81
2022/01/03 03:06:51;;;;;;;24.92;4.28;;;;;;;8.23;100.00;100694.84;4746383;30;20063;-81
2022/01/03 03:09:21;;;;;;;28.90;4.53;;;;;;;8.24;100.00;100696.59;4736229;30;20059;-81
2022/01/03 03:11:52;;;;;;;24.52;4.25;;;;;;;8.24;100.00;100701.84;4743810;30;20058;-80
2022/01/03 03:14:21;;;;;;;22.73;4.10;;;;;;;8.24;100.00;100699.22;4778187;30;20043;-81
2022/01/03 03:16:50;;;;;;;24.83;4.68;;;;;;;8.22;100.00;100708.81;4734043;30;20468;-80
2022/01/03 03:19:19;;;;;;;25.88;3.97;;;;;;;8.23;100.00;100700.09;4754823;30;20055;-82
2022/01/03 03:21:48;;;;;;;27.02;4.05;;;;;;;8.22;100.00;100699.19;4749860;30;20220;-81
2022/01/03 03:24:17;;;;;;;27.92;5.32;;;;;;;8.20;100.00;100693.94;4717351;30;20381;-81
2022/01/03 03:26:46;;;;;;;23.52;4.00;;;;;;;8.21;100.00;100705.31;4751330;30;20051;-80
2022/01/03 03:29:15;;;;;;;24.63;4.60;;;;;;;8.20;100.00;100708.81;4740527;30;20048;-80
2022/01/03 03:31:44;;;;;;;27.27;4.45;;;;;;;8.20;100.00;100704.44;4728426;30;20242;-80
2022/01/03 03:34:14;;;;;;;27.50;4.93;;;;;;;8.19;100.00;100704.44;4736445;30;20058;-82
2022/01/03 03:36:43;;;;;;;28.35;4.93;;;;;;;8.17;100.00;100706.16;4734082;30;20056;-80
2022/01/03 03:39:11;;;;;;;31.35;5.03;;;;;;;8.16;100.00;100700.00;4739003;30;20055;-82
2022/01/03 03:41:40;;;;;;;24.17;4.43;;;;;;;8.13;100.00;100701.75;4764070;30;20050;-80
2022/01/03 03:44:10;;;;;;;27.83;4.32;;;;;;;8.10;100.00;100696.47;4738061;30;20048;-79
2022/01/03 03:46:38;;;;;;;28.88;4.93;;;;;;;8.05;100.00;100709.50;4762857;30;20060;-80
2022/01/03 03:49:09;;;;;;;;;;;;;;;8.04;100.00;100699.88;4750881;30;20048;-79
2022/01/03 03:51:38;;;;;;;19.67;4.68;;;;;;;8.03;100.00;100698.13;4745386;30;19952;-79
2022/01/03 03:54:07;;;;;;;27.23;4.45;;;;;;;7.98;100.00;100699.84;4725508;30;20048;-81
2022/01/03 03:56:35;;;;;;;26.35;4.90;;;;;;;7.97;100.00;100700.69;4724300;30;20497;-81
2022/01/03 03:59:04;;;;;;;25.33;4.32;;;;;;;7.93;100.00;100701.50;4747246;30;20406;-80
2022/01/03 04:01:34;;;;;;;25.05;5.13;;;;;;;7.91;100.00;100700.63;4740199;30;20362;-80
2022/01/03 04:04:03;;;;;;;31.40;5.85;;;;;;;7.87;100.00;100697.06;4764737;30;20059;-81
2022/01/03 04:06:33;;;;;;;23.58;4.43;;;;;;;7.83;100.00;100703.16;4737431;30;20059;-80
2022/01/03 04:09:05;;;;;;;23.95;5.55;;;;;;;7.80;100.00;100695.22;4720581;30;20056;-81
2022/01/03 04:11:34;;;;;;;23.15;5.53;;;;;;;7.79;100.00;100698.72;4748850;30;20449;-80
2022/01/03 04:14:05;;;;;;;23.83;5.20;;;;;;;7.78;100.00;100699.59;4765166;30;20043;-81
2022/01/03 04:16:34;;;;;;;26.50;5.20;;;;;;;7.75;100.00;100697.81;4751202;30;20055;-81
2022/01/03 04:19:04;;;;;;;26.87;4.30;;;;;;;7.75;100.00;100702.16;4715689;30;20067;-80
2022/01/03 04:21:33;;;;;;;20.75;3.70;;;;;;;7.76;100.00;100696.06;4740174;30;20450;-81
2022/01/03 04:24:01;;;;;;;23.38;4.10;;;;;;;7.76;100.00;100690.81;4749513;30;20047;-81
2022/01/03 04:26:32;;;;;;;25.73;5.43;;;;;;;7.78;100.00;100684.72;4702566;30;20477;-81
2022/01/03 04:29:03;;;;;;;26.25;4.35;;;;;;;7.79;100.00;100683.88;4735833;30;20502;-80
2022/01/03 04:31:32;;;;;;;41.15;6.18;;;;;;;7.76;100.00;100690.81;4745020;30;20082;-80
2022/01/03 04:34:01;;;;;;;20.65;4.35;;;;;;;7.74;100.00;100693.41;4749233;30;20056;-79
2022/01/03 04:36:30;;;;;;;27.15;4.50;;;;;;;7.73;100.00;100701.25;4751923;30;20063;-80
2022/01/03 04:39:01;;;;;;;28.40;4.72;;;;;;;7.71;100.00;100682.00;4763008;30;20055;-80
2022/01/03 04:41:30;;;;;;;26.48;4.97;;;;;;;7.69;100.00;100694.22;4710636;30;20060;-80
2022/01/03 04:44:00;;;;;;;26.08;4.85;;;;;;;7.71;100.00;100703.88;4755344;30;20047;-80
2022/01/03 04:46:29;;;;;;;26.35;4.60;;;;;;;7.73;100.00;100701.25;4723773;30;20502;-81
2022/01/03 04:48:58;;;;;;;34.70;5.68;;;;;;;7.73;100.00;100694.28;4734414;30;20055;-79
2022/01/03 04:51:28;;;;;;;29.15;6.18;;;;;;;7.75;100.00;100694.28;4731254;30;20071;-81
2022/01/03 04:53:57;;;;;;;26.90;4.85;;;;;;;7.77;100.00;100687.34;4738975;30;20052;-79
2022/01/03 04:56:28;;;;;;;23.60;4.40;;;;;;;7.81;100.00;100687.38;4759316;30;20054;-81
2022/01/03 04:58:57;;;;;;;36.50;6.18;;;;;;;7.83;100.00;100692.66;4739001;30;20055;-80
2022/01/03 05:01:26;;;;;;;30.65;4.63;;;;;;;7.86;100.00;100694.44;4750828;30;20051;-80
2022/01/03 05:03:56;;;;;;;28.60;5.38;;;;;;;7.86;100.00;100697.91;4777711;30;20059;-79
2022/01/03 05:06:25;;;;;;;27.92;5.95;;;;;;;7.86;100.00;100695.28;4772136;30;20060;-82
2022/01/03 05:08:55;;;;;;;27.92;5.20;;;;;;;7.87;100.00;100694.44;4740472;30;20055;-79
2022/01/03 05:11:23;;;;;;;22.08;4.15;;;;;;;7.88;100.00;100684.81;4723653;30;20047;-82
2022/01/03 05:13:51;;;;;;;31.05;5.75;;;;;;;7.89;100.00;100694.47;4698829;30;20494;-79
2022/01/03 05:16:20;;;;;;;24.50;4.65;;;;;;;7.89;100.00;100691.84;4746466;30;20079;-79
2022/01/03 05:18:49;;;;;;;34.28;4.85;;;;;;;7.89;100.00;100691.84;4761566;30;20353;-80
2022/01/03 05:21:19;;;;;;;25.55;4.82;;;;;;;7.88;100.00;100700.56;4746608;30;20048;-80
2022/01/03 05:23:48;;;;;;;;;;;;;;;7.88;100.00;100690.06;4761810;30;20043;-81
2022/01/03 05:26:17;;;;;;;23.80;4.63;;;;;;;7.87;100.00;100690.94;4743247;30;19926;-81
2022/01/03 05:28:47;;;;;;;24.73;4.63;;;;;;;7.83;100.00;100687.41;4729547;30;20087;-80
2022/01/03 05:31:16;;;;;;;32.72;6.10;;;;;;;7.83;100.00;100679.53;4775111;30;20050;-80
2022/01/03 05:33:46;;;;;;;;;;;;;;;7.84;100.00;100683.03;4758505;30;20058;-79
2022/01/03 05:36:15;;;;;;;29.08;5.38;;;;;;;7.84;100.00;100683.03;4748621;30;19926;-81
2022/01/03 05:38:43;;;;;;;24.55;4.65;;;;;;;7.79;100.00;100686.50;4740706;30;20075;-80
2022/01/03 05:41:13;;;;;;;24.52;4.80;;;;;;;7.79;100.00;100685.63;4717960;30;20052;-80
2022/01/03 05:43:43;;;;;;;27.23;4.25;;;;;;;7.81;100.00;100690.00;4734551;30;20051;-81
2022/01/03 05:46:13;;;;;;;27.23;4.93;;;;;;;7.83;100.00;100679.53;4754191;30;20043;-81
2022/01/03 05:48:44;;;;;;;25.40;5.50;;;;;;;7.85;100.00;100684.81;4766407;30;20047;-79
2022/01/03 05:51:13;;;;;;;32.58;6.65;;;;;;;7.87;100.00;100686.56;4754748;30;20409;-79
2022/01/03 05:53:42;;;;;;;41.10;5.93;;;;;;;7.89;100.00;100686.59;4736368;30;20742;-80
2022/01/03 05:56:10;;;;;;;35.10;5.72;;;;;;;7.89;100.00;100678.72;4774245;29;20398;-80
2022/01/03 05:58:39;;;;;;;42.00;6.75;;;;;;;7.90;100.00;100686.63;4723648;30;22117;-79
2022/01/03 06:01:08;;;;;;;26.65;4.65;;;;;;;7.89;100.00;100683.97;4754072;30;20054;-80
2022/01/03 06:03:39;;;;;;;28.17;5.57;;;;;;;7.88;100.00;100679.59;4779908;29;20075;-79
2022/01/03 06:08:40;;;;;;;28.15;5.18;;;;;;;7.84;100.00;100677.78;4740962;30;20044;-80
2022/01/03 06:11:09;;;;;;;37.85;5.40;;;;;;;7.83;100.00;100682.16;4740027;30;20048;-80
2022/01/03 06:13:38;;;;;;;31.60;6.30;;;;;;;7.83;100.00;100676.03;4733912;30;20647;-82
2022/01/03 06:16:07;;;;;;;29.92;5.80;;;;;;;7.78;100.00;100674.22;4752280;30;20040;-80
2022/01/03 06:18:40;;;;;;;33.33;4.55;;;;;;;7.74;100.00;100672.44;4740546;30;20157;-80
2022/01/03 06:21:09;;;;;;;38.17;5.32;;;;;;;7.74;100.00;100666.31;4760962;30;20608;-80
2022/01/03 06:23:43;;;;;;;33.33;5.93;;;;;;;7.74;100.00;100671.56;4752325;30;20256;-80
2022/01/03 06:26:12;;;;;;;32.35;5.35;;;;;;;7.75;100.00;100663.72;4753095;30;20513;-80
2022/01/03 06:28:48;;;;;;;28.33;6.10;;;;;;;7.79;100.00;100664.63;4737752;30;20039;-81
2022/01/03 06:31:19;;;;;;;30.17;5.25;;;;;;;7.81;100.00;100663.78;4724098;30;20052;-80
2022/01/03 06:33:49;;;;;;;27.30;4.68;;;;;;;7.86;100.00;100655.06;4749972;30;20046;-80
2022/01/03 06:36:18;;;;;;;35.22;5.22;;;;;;;7.88;100.00;100653.34;4761917;30;20506;-81
2022/01/03 06:38:54;;;;;;;28.20;5.05;;;;;;;7.90;100.00;100654.25;4740623;30;20063;-81
2022/01/03 06:41:24;;;;;;;26.88;5.15;;;;;;;7.92;100.00;100647.25;4749345;30;20047;-81
2022/01/03 06:43:53;;;;;;;32.22;5.63;;;;;;;7.92;100.00;100650.78;4742296;30;20040;-80
2022/01/03 06:46:25;;;;;;;22.10;5.32;;;;;;;7.90;100.00;100660.38;4713221;30;20402;-81
2022/01/03 06:48:53;;;;;;;35.70;6.55;;;;;;;7.88;100.00;100654.25;4755629;30;20048;-80
2022/01/03 06:51:22;;;;;;;33.60;5.80;;;;;;;7.89;100.00;100649.88;4749164;30;20392;-81
2022/01/03 06:53:52;;;;;;;29.25;4.68;;;;;;;7.89;100.00;100655.13;4767206;30;20047;-80
2022/01/03 06:56:21;;;;;;;27.58;5.50;;;;;;;7.89;100.00;100644.63;4767579;30;20058;-80
2022/01/03 06:58:50;;;;;;;22.80;5.80;;;;;;;7.90;100.00;100646.38;4745467;30;20794;-80
2022/01/03 07:01:22;;;;;;;35.60;4.97;;;;;;;7.90;100.00;100641.13;4717358;30;20074;-80
2022/01/03 07:03:51;;;;;;;24.70;5.68;;;;;;;7.92;100.00;100647.25;4722056;30;20059;-81
2022/01/03 07:06:19;;;;;;;31.35;4.95;;;;;;;7.94;100.00;100649.06;4780567;30;20059;-81
2022/01/03 07:08:48;;;;;;;27.77;5.07;;;;;;;7.96;100.00;100654.34;4716644;30;20466;-80
2022/01/03 07:11:17;;;;;;;31.42;5.15;;;;;;;7.97;100.00;100645.56;4734746;30;20052;-82
2022/01/03 07:13:50;;;;;;;31.73;5.53;;;;;;;7.95;100.00;100653.44;4734281;30;20423;-81
2022/01/03 07:19:07;;;;;;;34.97;5.65;;;;;;;7.97;100.00;100666.56;4732368;30;20058;-81
2022/01/03 07:21:36;;;;;;;32.47;5.50;;;;;;;7.97;100.00;100662.19;4708881;30;20052;-81
2022/01/03 07:24:05;;;;;;;29.17;4.80;;;;;;;7.95;100.00;100665.66;4727558;30;20059;-80
2022/01/03 07:26:33;;;;;;;37.28;5.50;;;;;;;7.95;100.00;100665.66;4701381;30;20060;-80
2022/01/03 07:29:04;;;;;;;25.45;4.50;;;;;;;7.91;100.00;100664.75;4695744;30;20073;-81
2022/01/03 07:31:33;;;;;;;;;;;;;;;7.90;100.00;100673.50;4687963;30;20226;-80
2022/01/03 07:34:01;;;;;;;24.33;5.25;;;;;;;7.90;100.00;100669.97;4692971;30;19949;-81
2022/01/03 07:36:31;;;;;;;37.80;6.15;;;;;;;7.87;100.00;100668.22;4686626;30;20086;-80
2022/01/03 07:39:00;;;;;;;33.97;5.05;;;;;;;7.86;100.00;100679.56;4710325;30;20402;-81
2022/01/03 07:41:29;;;;;;;24.52;4.85;;;;;;;7.85;100.00;100682.19;4715462;30;20061;-82
2022/01/03 07:43:59;;;;;;;36.85;6.25;;;;;;;7.85;100.00;100679.56;4721743;30;20528;-80
2022/01/03 07:46:27;;;;;;;25.48;4.68;;;;;;;7.84;100.00;100683.03;4683691;30;20062;-82
2022/01/03 07:48:57;;;;;;;31.42;6.45;;;;;;;7.85;100.00;100679.56;4687761;30;20637;-80
2022/01/03 07:51:26;;;;;;;42.58;7.55;;;;;;;7.86;100.00;100681.31;4727372;30;20503;-81
2022/01/03 07:53:55;;;;;;;31.80;5.47;;;;;;;7.85;100.00;100685.69;4723040;30;23718;-80
2022/01/03 07:56:25;;;;;;;34.22;6.57;;;;;;;7.88;100.00;100676.97;4689027;30;20053;-82
2022/01/03 07:58:54;;;;;;;35.72;6.15;;;;;;;7.88;100.00;100676.97;4752527;30;20060;-80
2022/01/03 08:01:22;;;;;;;36.67;5.47;;;;;;;7.88;100.00;100680.47;4739252;30;20052;-80
2022/01/03 08:03:52;;;;;;;29.63;4.93;;;;;;;7.89;100.00;100686.59;4712299;30;20636;-81
2022/01/03 08:06:44;;;;;;;36.83;5.60;;;;;;;7.89;100.00;100681.34;4712175;30;20270;-82
2022/01/03 08:09:17;;;;;;;21.55;4.65;;;;;;;7.89;100.00;100679.59;4731661;30;20055;-82
2022/01/03 08:11:45;;;;;;;35.80;6.00;;;;;;;7.89;100.00;100684.84;4711102;30;20443;-81
2022/01/03 08:14:14;;;;;;;42.80;6.20;;;;;;;7.91;100.00;100684.88;4719360;30;20044;-81
2022/01/03 08:16:43;;;;;;;30.92;5.25;;;;;;;7.90;100.00;100672.59;4682180;30;20052;-80
2022/01/03 08:19:14;;;;;;;39.80;7.03;;;;;;;7.91;100.00;100690.13;4704265;30;20067;-82
2022/01/03 08:21:42;;;;;;;41.75;5.40;;;;;;;7.91;100.00;100693.63;4727767;30;20542;-80
2022/01/03 08:24:11;;;;;;;34.25;5.88;;;;;;;7.93;100.00;100698.88;4716024;30;20060;-81
2022/01/03 08:26:39;;;;;;;39.15;5.63;;;;;;;7.95;100.00;100700.66;4674297;30;20067;-80
2022/01/03 08:29:09;;;;;;;38.83;5.65;;;;;;;7.96;100.00;100699.81;4725433;30;20052;-79
2022/01/03 08:31:38;;;;;;;40.97;6.13;;;;;;;7.97;100.00;100698.06;4710993;30;20051;-81
2022/01/03 08:34:07;;;;;;;23.63;4.60;;;;;;;7.98;100.00;100677.09;4685523;30;20060;-82
2022/01/03 08:36:36;;;;;;;34.40;5.13;;;;;;;8.00;100.00;100684.97;4719155;30;20542;-81
2022/01/03 08:39:06;;;;;;;31.58;6.43;;;;;;;8.02;100.00;100680.63;4711011;30;20043;-81
2022/01/03 08:41:34;;;;;;;31.60;6.50;;;;;;;8.04;100.00;100684.16;4691646;30;20072;-83
2022/01/03 08:44:03;;;;;;;36.72;5.55;;;;;;;8.09;100.00;100682.47;4706512;30;20064;-81
2022/01/03 08:46:34;;;;;;;33.72;5.35;;;;;;;8.12;100.00;100679.84;4702318;30;20087;-81
2022/01/03 08:49:03;;;;;;;30.90;5.38;;;;;;;8.14;100.00;100678.13;4691736;30;20451;-80
2022/01/03 08:51:34;;;;;;;23.98;5.47;;;;;;;8.17;100.00;100683.41;4693222;30;20297;-80
2022/01/03 08:54:02;;;;;;;37.33;6.07;;;;;;;8.20;100.00;100669.44;4699915;30;20419;-81
2022/01/03 08:56:31;;;;;;;24.73;4.82;;;;;;;8.23;100.00;100681.72;4690848;30;20087;-82
2022/01/03 08:59:00;;;;;;;29.80;4.80;;;;;;;8.27;100.00;100678.25;4701919;30;20069;-80
2022/01/03 09:01:29;;;;;;;39.13;7.03;;;;;;;8.31;100.00;100678.28;4707272;30;20105;-79
2022/01/03 09:03:57;;;;;;;24.30;5.32;;;;;;;8.33;100.00;100675.69;4690187;30;20520;-79
2022/01/03 09:06:26;;;;;;;35.88;5.15;;;;;;;8.35;100.00;100682.69;4717082;30;20570;-80
2022/01/03 09:08:55;;;;;;;22.92;4.50;;;;;;;8.36;100.00;100673.09;4705891;30;20289;-79
2022/01/03 09:11:23;;;;;;;23.33;4.80;;;;;;;8.37;100.00;100680.09;4719583;30;20415;-78
2022/01/03 09:13:52;;;;;;;37.00;6.90;;;;;;;8.41;100.00;100676.63;4729223;30;20426;-80
2022/01/03 09:16:20;;;;;;;28.13;5.50;;;;;;;8.42;100.00;100674.94;4695513;30;20044;-81
2022/01/03 09:18:49;;;;;;;30.10;5.88;;;;;;;8.41;100.00;100666.13;4747747;30;20075;-80
2022/01/03 09:21:19;;;;;;;29.90;5.90;;;;;;;8.41;100.00;100671.38;4779145;29;20047;-82
2022/01/03 09:23:52;;;;;;;30.87;5.30;;;;;;;8.42;100.00;100656.56;4708894;30;20081;-79
2022/01/03 09:29:09;;;;;;;34.40;5.57;;;;;;;8.43;100.00;100660.91;4722879;30;20048;-80
2022/01/03 09:31:38;;;;;;;22.00;5.50;;;;;;;8.45;100.00;100667.97;4722241;30;20063;-81
2022/01/03 09:34:08;;;;;;;23.92;5.03;;;;;;;8.46;100.00;100671.47;4735627;30;20537;-80
2022/01/03 09:36:36;;;;;;;30.35;5.53;;;;;;;8.47;100.00;100674.13;4706309;30;20056;-80
2022/01/03 09:39:06;;;;;;;25.75;5.32;;;;;;;8.50;100.00;100670.63;4713226;30;20059;-81
2022/01/03 09:41:43;;;;;;;22.52;4.05;;;;;;;8.51;100.00;100673.25;4725710;30;20056;-80
2022/01/03 09:44:12;;;;;;;28.40;5.57;;;;;;;8.56;100.00;100670.66;4751117;30;20058;-80
2022/01/03 09:46:42;;;;;;;30.60;4.55;;;;;;;8.57;100.00;100681.19;4710612;30;20052;-78
2022/01/03 09:49:13;;;;;;;27.27;5.18;;;;;;;8.59;100.00;100670.69;4724765;30;20049;-80
2022/01/03 09:51:42;;;;;;;21.53;4.50;;;;;;;8.62;100.00;100669.84;4752285;30;20043;-80
2022/01/03 09:54:16;;;;;;;25.93;6.07;;;;;;;8.64;100.00;100669.00;4729830;30;20379;-80
2022/01/03 09:56:45;;;;;;;29.02;5.30;;;;;;;8.66;100.00;100663.75;4730962;30;20586;-81
2022/01/03 09:59:15;;;;;;;30.83;5.55;;;;;;;8.67;100.00;100669.00;4704243;30;20743;-80
2022/01/03 10:01:44;;;;;;;31.55;6.03;;;;;;;8.69;100.00;100667.28;4751208;29;20047;-79
2022/01/03 10:04:14;;;;;;;24.83;4.78;;;;;;;8.71;100.00;100655.03;4731841;30;20068;-80
2022/01/03 10:06:42;;;;;;;27.20;4.63;;;;;;;8.71;100.00;100668.16;4745919;30;20399;-79
2022/01/03 10:09:12;;;;;;;28.42;5.25;;;;;;;8.72;100.00;100655.94;4721926;30;20047;-81
2022/01/03 10:11:40;;;;;;;33.80;6.45;;;;;;;8.74;100.00;100662.06;4740848;30;20048;-79
2022/01/03 10:14:11;;;;;;;35.38;7.05;;;;;;;8.73;100.00;100647.16;4726911;30;20063;-80
2022/01/03 10:16:42;;;;;;;26.88;5.00;;;;;;;8.71;100.00;100660.28;4725392;30;20044;-80
2022/01/03 10:19:23;;;;;;;24.85;4.82;;;;;;;8.71;100.00;100662.03;4735928;30;20048;-79
2022/01/03 10:21:52;;;;;;;22.42;3.97;;;;;;;8.72;100.00;100654.16;4750680;30;20381;-81
2022/01/03 10:24:41;;;;;;;25.30;5.10;;;;;;;8.75;100.00;100651.59;4743992;30;20361;-79
2022/01/03 10:27:10;;;;;;;36.00;6.20;;;;;;;8.78;100.00;100658.59;4759961;30;20040;-79
2022/01/03 10:29:40;;;;;;;31.35;5.85;;;;;;;8.81;100.00;100648.13;4755146;30;20059;-81
2022/01/03 10:32:12;;;;;;;23.27;4.72;;;;;;;8.82;100.00;100641.97;4722723;30;20553;-79
2022/01/03 10:34:41;;;;;;;22.10;5.43;;;;;;;8.84;100.00;100642.00;4713866;30;20052;-80
2022/01/03 10:37:12;;;;;;;28.42;4.72;;;;;;;8.86;100.00;100656.03;4741705;30;20755;-80
2022/01/03 10:39:40;;;;;;;;;;;;;;;8.87;100.00;100656.03;4693169;30;20432;-79
2022/01/03 10:42:19;;;;;;;27.63;4.78;;;;;;;8.87;100.00;100656.03;4744159;30;20111;-79
2022/01/03 10:44:48;;;;;;;22.00;4.65;;;;;;;8.90;100.00;100649.91;4733499;30;20066;-81
2022/01/03 10:47:32;;;;;;;30.08;4.72;;;;;;;8.94;100.00;100646.44;4719216;30;20071;-80
2022/01/03 10:50:15;;;;;;;25.27;5.45;;;;;;;8.92;100.00;100638.56;4752802;30;20059;-79
2022/01/03 10:52:46;;;;;;;22.27;4.45;;;;;;;8.94;100.00;100635.91;4738427;30;20537;-81
2022/01/03 10:55:34;;;;;;;23.05;4.93;;;;;;;8.98;100.00;100635.97;4707360;30;20240;-78
2022/01/03 10:58:05;;;;;;;23.13;4.90;;;;;;;9.00;100.00;100640.34;4752503;30;20197;-79
2022/01/03 11:00:39;;;;;;;27.70;4.60;;;;;;;8.98;100.00;100633.34;4742536;30;20515;-80
2022/01/03 11:03:21;;;;;;;28.10;5.13;;;;;;;9.01;100.00;100636.84;4721805;30;20058;-80
2022/01/03 11:05:54;;;;;;;29.05;5.40;;;;;;;9.03;100.00;100620.22;4743609;30;20044;-79
2022/01/03 11:11:37;;;;;;;25.42;4.80;;;;;;;9.03;100.00;100614.94;4723570;30;20082;-80
2022/01/03 11:14:07;;;;;;;34.45;4.80;;;;;;;9.05;100.00;100622.84;4732062;30;20497;-79
2022/01/03 11:16:42;;;;;;;21.75;4.47;;;;;;;9.05;100.00;100618.47;4736104;30;20040;-80
2022/01/03 11:19:11;;;;;;;22.02;4.47;;;;;;;9.04;100.00;100627.25;4733091;30;20048;-79
2022/01/03 11:21:44;;;;;;;31.98;5.55;;;;;;;9.02;100.00;100617.56;4707613;30;20437;-79
2022/01/03 11:24:14;;;;;;;23.42;5.40;;;;;;;9.00;100.00;100614.06;4734361;30;20063;-81
2022/01/03 11:26:48;;;;;;;25.60;4.77;;;;;;;8.99;100.00;100610.56;4711575;30;20133;-80
2022/01/03 11:29:17;;;;;;;27.67;5.13;;;;;;;8.97;100.00;100602.66;4735027;30;20052;-81
2022/01/03 11:31:50;;;;;;;24.48;4.47;;;;;;;8.97;100.00;100602.66;4737226;30;20051;-80
2022/01/03 11:34:24;;;;;;;28.95;5.15;;;;;;;8.95;100.00;100601.78;4722597;30;20064;-78
2022/01/03 11:37:00;;;;;;;19.58;4.45;;;;;;;9.00;100.00;100614.06;4752472;30;20055;-77
2022/01/03 11:39:32;;;;;;;23.83;5.03;;;;;;;9.01;100.00;100597.44;4755552;30;20308;-79
2022/01/03 11:42:02;;;;;;;28.88;5.70;;;;;;;9.02;100.00;100591.28;4710137;30;20442;-78
2022/01/03 11:44:31;;;;;;;25.17;5.35;;;;;;;9.04;100.00;100594.81;4749277;30;20068;-78
2022/01/03 11:47:02;;;;;;;21.10;4.75;;;;;;;9.07;100.00;100576.44;4709292;30;20052;-78
2022/01/03 11:49:32;;;;;;;25.85;4.53;;;;;;;9.07;100.00;100574.66;4731415;30;20590;-79